<?xml version="1.0" encoding="utf-8"?>
<gpx xmlns:xsi="http://www.w3.org/2001/XMLSchema-instance" xmlns:xsd="http://www.w3.org/2001/XMLSchema" version="1.1" creator="Shapelink.com" xmlns="http://www.topografix.com/GPX/1/1" xmlns:gpxtpx="http://www.garmin.com/xmlschemas/TrackPointExtension/v1">
  <metadata>
    <name>Laufen 5.46 km, 2018-04-21</name>
    <desc></desc>
    <author><name>Henrik Staffas</name></author> 
    <time>2018-04-21T09:55:20Z</time>
  </metadata>
  <trk>
    <name>Laufen 5.46 km, 2018-04-21</name>
    <trkseg>
      <trkpt lat="59.451146522606" lon="17.969520976123">
        <ele>24.8</ele>
        <time>2018-04-21T09:55:20Z</time>
      </trkpt>
      <trkpt lat="59.451141074371" lon="17.969576464301">
        <ele>27.6</ele>
        <time>2018-04-21T09:55:23Z</time>
      </trkpt>
      <trkpt lat="59.451123137105" lon="17.969621391285">
        <ele>26.4</ele>
        <time>2018-04-21T09:55:25Z</time>
      </trkpt>
      <trkpt lat="59.451118107965" lon="17.969642429854">
        <ele>26.2</ele>
        <time>2018-04-21T09:55:26Z</time>
      </trkpt>
      <trkpt lat="59.451123388562" lon="17.969693140349">
        <ele>27</ele>
        <time>2018-04-21T09:55:28Z</time>
      </trkpt>
      <trkpt lat="59.45110930697" lon="17.969778719548">
        <ele>27.6</ele>
        <time>2018-04-21T09:55:29Z</time>
      </trkpt>
      <trkpt lat="59.451100254518" lon="17.969883074203">
        <ele>28.4</ele>
        <time>2018-04-21T09:55:33Z</time>
      </trkpt>
      <trkpt lat="59.451104696925" lon="17.969928504101">
        <ele>29</ele>
        <time>2018-04-21T09:55:34Z</time>
      </trkpt>
      <trkpt lat="59.450997324786" lon="17.969925402798">
        <ele>30.6</ele>
        <time>2018-04-21T09:55:36Z</time>
      </trkpt>
      <trkpt lat="59.450939489676" lon="17.969983573184">
        <ele>32.2</ele>
        <time>2018-04-21T09:55:38Z</time>
      </trkpt>
      <trkpt lat="59.450829770605" lon="17.970144086569">
        <ele>33.4</ele>
        <time>2018-04-21T09:55:41Z</time>
      </trkpt>
      <trkpt lat="59.450714100385" lon="17.970478021465">
        <ele>34.4</ele>
        <time>2018-04-21T09:55:47Z</time>
      </trkpt>
      <trkpt lat="59.450676214197" lon="17.970638031936">
        <ele>35.6</ele>
        <time>2018-04-21T09:55:50Z</time>
      </trkpt>
      <trkpt lat="59.450548222584" lon="17.970889908031">
        <ele>34.6</ele>
        <time>2018-04-21T09:55:57Z</time>
      </trkpt>
      <trkpt lat="59.450355103608" lon="17.971113872399">
        <ele>34</ele>
        <time>2018-04-21T09:56:04Z</time>
      </trkpt>
      <trkpt lat="59.450216131706" lon="17.971400868655">
        <ele>33.6</ele>
        <time>2018-04-21T09:56:09Z</time>
      </trkpt>
      <trkpt lat="59.45018729797" lon="17.971480748162">
        <ele>33.6</ele>
        <time>2018-04-21T09:56:10Z</time>
      </trkpt>
      <trkpt lat="59.450122673521" lon="17.971658109166">
        <ele>34</ele>
        <time>2018-04-21T09:56:13Z</time>
      </trkpt>
      <trkpt lat="59.450073387949" lon="17.971869333046">
        <ele>34.6</ele>
        <time>2018-04-21T09:56:17Z</time>
      </trkpt>
      <trkpt lat="59.450032484277" lon="17.972030265526">
        <ele>35.6</ele>
        <time>2018-04-21T09:56:20Z</time>
      </trkpt>
      <trkpt lat="59.449951263666" lon="17.972348107174">
        <ele>35.8</ele>
        <time>2018-04-21T09:56:27Z</time>
      </trkpt>
      <trkpt lat="59.449873228177" lon="17.972701990992">
        <ele>35.6</ele>
        <time>2018-04-21T09:56:33Z</time>
      </trkpt>
      <trkpt lat="59.449799048362" lon="17.973031483481">
        <ele>35.6</ele>
        <time>2018-04-21T09:56:38Z</time>
      </trkpt>
      <trkpt lat="59.449729562411" lon="17.973391989">
        <ele>34.4</ele>
        <time>2018-04-21T09:56:43Z</time>
      </trkpt>
      <trkpt lat="59.449791756109" lon="17.973758445668">
        <ele>33.6</ele>
        <time>2018-04-21T09:56:50Z</time>
      </trkpt>
      <trkpt lat="59.449815644524" lon="17.973947373694">
        <ele>33.4</ele>
        <time>2018-04-21T09:56:53Z</time>
      </trkpt>
      <trkpt lat="59.449883370276" lon="17.974300754598">
        <ele>33</ele>
        <time>2018-04-21T09:56:59Z</time>
      </trkpt>
      <trkpt lat="59.449856799653" lon="17.97468531617">
        <ele>32.4</ele>
        <time>2018-04-21T09:57:05Z</time>
      </trkpt>
      <trkpt lat="59.449845148812" lon="17.974745498212">
        <ele>32.4</ele>
        <time>2018-04-21T09:57:06Z</time>
      </trkpt>
      <trkpt lat="59.449814973972" lon="17.974946747631">
        <ele>32</ele>
        <time>2018-04-21T09:57:09Z</time>
      </trkpt>
      <trkpt lat="59.449743727822" lon="17.975309516263">
        <ele>31.4</ele>
        <time>2018-04-21T09:57:15Z</time>
      </trkpt>
      <trkpt lat="59.44973718994" lon="17.975343043863">
        <ele>31.2</ele>
        <time>2018-04-21T09:57:16Z</time>
      </trkpt>
      <trkpt lat="59.449720677597" lon="17.975664825004">
        <ele>30</ele>
        <time>2018-04-21T09:57:23Z</time>
      </trkpt>
      <trkpt lat="59.44981933256" lon="17.975984594489">
        <ele>30.6</ele>
        <time>2018-04-21T09:57:31Z</time>
      </trkpt>
      <trkpt lat="59.449924776862" lon="17.976330012588">
        <ele>31</ele>
        <time>2018-04-21T09:57:37Z</time>
      </trkpt>
      <trkpt lat="59.449880436611" lon="17.976722369327">
        <ele>30.4</ele>
        <time>2018-04-21T09:57:43Z</time>
      </trkpt>
      <trkpt lat="59.449874234005" lon="17.977079941181">
        <ele>30.2</ele>
        <time>2018-04-21T09:57:48Z</time>
      </trkpt>
      <trkpt lat="59.449862666983" lon="17.977435920474">
        <ele>30</ele>
        <time>2018-04-21T09:57:53Z</time>
      </trkpt>
      <trkpt lat="59.449794689774" lon="17.977802293323">
        <ele>30</ele>
        <time>2018-04-21T09:57:59Z</time>
      </trkpt>
      <trkpt lat="59.449738698682" lon="17.978196913175">
        <ele>30.8</ele>
        <time>2018-04-21T09:58:05Z</time>
      </trkpt>
      <trkpt lat="59.449619508064" lon="17.978492710426">
        <ele>29.6</ele>
        <time>2018-04-21T09:58:11Z</time>
      </trkpt>
      <trkpt lat="59.449583046799" lon="17.978600836936">
        <ele>29</ele>
        <time>2018-04-21T09:58:15Z</time>
      </trkpt>
      <trkpt lat="59.449585393731" lon="17.97860804537">
        <ele>29</ele>
        <time>2018-04-21T09:58:16Z</time>
      </trkpt>
      <trkpt lat="59.449560667126" lon="17.978633693984">
        <ele>28.8</ele>
        <time>2018-04-21T09:58:18Z</time>
      </trkpt>
      <trkpt lat="59.44952512787" lon="17.97866588048">
        <ele>28.6</ele>
        <time>2018-04-21T09:58:20Z</time>
      </trkpt>
      <trkpt lat="59.449461760706" lon="17.978732516585">
        <ele>27.8</ele>
        <time>2018-04-21T09:58:23Z</time>
      </trkpt>
      <trkpt lat="59.449406356347" lon="17.978782221252">
        <ele>27.2</ele>
        <time>2018-04-21T09:58:26Z</time>
      </trkpt>
      <trkpt lat="59.449341815717" lon="17.978849024995">
        <ele>26.8</ele>
        <time>2018-04-21T09:58:29Z</time>
      </trkpt>
      <trkpt lat="59.449326309202" lon="17.97885782599">
        <ele>26.8</ele>
        <time>2018-04-21T09:58:30Z</time>
      </trkpt>
      <trkpt lat="59.449285740806" lon="17.978905854277">
        <ele>26.6</ele>
        <time>2018-04-21T09:58:32Z</time>
      </trkpt>
      <trkpt lat="59.449235197949" lon="17.978959163161">
        <ele>26.4</ele>
        <time>2018-04-21T09:58:34Z</time>
      </trkpt>
      <trkpt lat="59.449193623725" lon="17.979020183393">
        <ele>26.6</ele>
        <time>2018-04-21T09:58:37Z</time>
      </trkpt>
      <trkpt lat="59.449084323749" lon="17.979191928524">
        <ele>26.6</ele>
        <time>2018-04-21T09:58:42Z</time>
      </trkpt>
      <trkpt lat="59.449053981271" lon="17.979234340938">
        <ele>26.6</ele>
        <time>2018-04-21T09:58:43Z</time>
      </trkpt>
      <trkpt lat="59.449010311572" lon="17.979279938474">
        <ele>26.6</ele>
        <time>2018-04-21T09:58:45Z</time>
      </trkpt>
      <trkpt lat="59.448945854761" lon="17.979353950651">
        <ele>26.8</ele>
        <time>2018-04-21T09:58:48Z</time>
      </trkpt>
      <trkpt lat="59.448887684375" lon="17.979415389978">
        <ele>26.8</ele>
        <time>2018-04-21T09:58:51Z</time>
      </trkpt>
      <trkpt lat="59.448849882006" lon="17.979453276166">
        <ele>27</ele>
        <time>2018-04-21T09:58:53Z</time>
      </trkpt>
      <trkpt lat="59.448807050497" lon="17.979487474318">
        <ele>27</ele>
        <time>2018-04-21T09:58:55Z</time>
      </trkpt>
      <trkpt lat="59.44873806746" lon="17.979514464036">
        <ele>26.6</ele>
        <time>2018-04-21T09:58:57Z</time>
      </trkpt>
      <trkpt lat="59.448684507119" lon="17.97954597998">
        <ele>26.2</ele>
        <time>2018-04-21T09:58:59Z</time>
      </trkpt>
      <trkpt lat="59.448644860732" lon="17.979548662188">
        <ele>25.8</ele>
        <time>2018-04-21T09:59:01Z</time>
      </trkpt>
      <trkpt lat="59.448580823016" lon="17.979596606656">
        <ele>25.2</ele>
        <time>2018-04-21T09:59:03Z</time>
      </trkpt>
      <trkpt lat="59.448528939055" lon="17.97957950758">
        <ele>24.8</ele>
        <time>2018-04-21T09:59:05Z</time>
      </trkpt>
      <trkpt lat="59.448506307925" lon="17.97958705129">
        <ele>24.6</ele>
        <time>2018-04-21T09:59:06Z</time>
      </trkpt>
      <trkpt lat="59.448378400131" lon="17.979643629115">
        <ele>24</ele>
        <time>2018-04-21T09:59:10Z</time>
      </trkpt>
      <trkpt lat="59.44830639961" lon="17.979682353493">
        <ele>23.8</ele>
        <time>2018-04-21T09:59:13Z</time>
      </trkpt>
      <trkpt lat="59.448221574782" lon="17.979686209167">
        <ele>23.6</ele>
        <time>2018-04-21T09:59:16Z</time>
      </trkpt>
      <trkpt lat="59.448158123799" lon="17.979683610778">
        <ele>23.6</ele>
        <time>2018-04-21T09:59:19Z</time>
      </trkpt>
      <trkpt lat="59.44810774858" lon="17.979674139231">
        <ele>23.8</ele>
        <time>2018-04-21T09:59:21Z</time>
      </trkpt>
      <trkpt lat="59.44801806225" lon="17.979692244135">
        <ele>24.6</ele>
        <time>2018-04-21T09:59:23Z</time>
      </trkpt>
      <trkpt lat="59.447921921857" lon="17.979645389314">
        <ele>25.8</ele>
        <time>2018-04-21T09:59:26Z</time>
      </trkpt>
      <trkpt lat="59.447723438465" lon="17.979592499525">
        <ele>26.6</ele>
        <time>2018-04-21T09:59:30Z</time>
      </trkpt>
      <trkpt lat="59.44758136526" lon="17.979590068774">
        <ele>27</ele>
        <time>2018-04-21T09:59:33Z</time>
      </trkpt>
      <trkpt lat="59.447463767203" lon="17.979594092086">
        <ele>28.2</ele>
        <time>2018-04-21T09:59:36Z</time>
      </trkpt>
      <trkpt lat="59.447302164171" lon="17.979676318525">
        <ele>28.4</ele>
        <time>2018-04-21T09:59:39Z</time>
      </trkpt>
      <trkpt lat="59.44707761307" lon="17.979776649868">
        <ele>28.4</ele>
        <time>2018-04-21T09:59:43Z</time>
      </trkpt>
      <trkpt lat="59.446897821315" lon="17.9798963434">
        <ele>28.4</ele>
        <time>2018-04-21T09:59:47Z</time>
      </trkpt>
      <trkpt lat="59.446705372891" lon="17.979991561784">
        <ele>28.2</ele>
        <time>2018-04-21T09:59:51Z</time>
      </trkpt>
      <trkpt lat="59.44661828495" lon="17.980319210255">
        <ele>28</ele>
        <time>2018-04-21T09:59:57Z</time>
      </trkpt>
      <trkpt lat="59.446476547021" lon="17.980589777987">
        <ele>28.2</ele>
        <time>2018-04-21T10:00:03Z</time>
      </trkpt>
      <trkpt lat="59.446451317502" lon="17.980608888719">
        <ele>28.4</ele>
        <time>2018-04-21T10:00:04Z</time>
      </trkpt>
      <trkpt lat="59.446358026955" lon="17.980675776281">
        <ele>29.2</ele>
        <time>2018-04-21T10:00:07Z</time>
      </trkpt>
      <trkpt lat="59.446229700066" lon="17.980712572822">
        <ele>30.4</ele>
        <time>2018-04-21T10:00:11Z</time>
      </trkpt>
      <trkpt lat="59.445827117409" lon="17.980602602294">
        <ele>30.8</ele>
        <time>2018-04-21T10:00:25Z</time>
      </trkpt>
      <trkpt lat="59.445605164697" lon="17.98047134174">
        <ele>31.4</ele>
        <time>2018-04-21T10:00:28Z</time>
      </trkpt>
      <trkpt lat="59.445565937405" lon="17.980491123024">
        <ele>31.4</ele>
        <time>2018-04-21T10:00:29Z</time>
      </trkpt>
      <trkpt lat="59.445423445105" lon="17.980416524114">
        <ele>32</ele>
        <time>2018-04-21T10:00:33Z</time>
      </trkpt>
      <trkpt lat="59.445386732383" lon="17.980400598504">
        <ele>32.4</ele>
        <time>2018-04-21T10:00:34Z</time>
      </trkpt>
      <trkpt lat="59.445299057709" lon="17.980361119755">
        <ele>33.6</ele>
        <time>2018-04-21T10:00:37Z</time>
      </trkpt>
      <trkpt lat="59.445215071071" lon="17.980424235462">
        <ele>34</ele>
        <time>2018-04-21T10:00:41Z</time>
      </trkpt>
      <trkpt lat="59.445101747783" lon="17.980392216604">
        <ele>34.8</ele>
        <time>2018-04-21T10:00:45Z</time>
      </trkpt>
      <trkpt lat="59.445041565741" lon="17.980338320987">
        <ele>35.8</ele>
        <time>2018-04-21T10:00:49Z</time>
      </trkpt>
      <trkpt lat="59.445019269887" lon="17.980290125062">
        <ele>36.4</ele>
        <time>2018-04-21T10:00:52Z</time>
      </trkpt>
      <trkpt lat="59.444982640984" lon="17.980258357661">
        <ele>36.6</ele>
        <time>2018-04-21T10:00:54Z</time>
      </trkpt>
      <trkpt lat="59.444972247428" lon="17.980254585806">
        <ele>37</ele>
        <time>2018-04-21T10:00:56Z</time>
      </trkpt>
      <trkpt lat="59.444999488603" lon="17.980196499239">
        <ele>37.6</ele>
        <time>2018-04-21T10:00:59Z</time>
      </trkpt>
      <trkpt lat="59.445030166357" lon="17.980129444039">
        <ele>38.2</ele>
        <time>2018-04-21T10:01:03Z</time>
      </trkpt>
      <trkpt lat="59.445000410612" lon="17.980077560078">
        <ele>38.2</ele>
        <time>2018-04-21T10:01:07Z</time>
      </trkpt>
      <trkpt lat="59.445014911299" lon="17.980119134302">
        <ele>38.4</ele>
        <time>2018-04-21T10:01:10Z</time>
      </trkpt>
      <trkpt lat="59.444934193602" lon="17.980072447119">
        <ele>38.4</ele>
        <time>2018-04-21T10:01:13Z</time>
      </trkpt>
      <trkpt lat="59.444699416583" lon="17.97991897453">
        <ele>38.2</ele>
        <time>2018-04-21T10:01:16Z</time>
      </trkpt>
      <trkpt lat="59.44450604615" lon="17.979778912981">
        <ele>38.6</ele>
        <time>2018-04-21T10:01:19Z</time>
      </trkpt>
      <trkpt lat="59.444373025397" lon="17.979718730939">
        <ele>38.8</ele>
        <time>2018-04-21T10:01:21Z</time>
      </trkpt>
      <trkpt lat="59.444170351055" lon="17.97962309346">
        <ele>38.8</ele>
        <time>2018-04-21T10:01:26Z</time>
      </trkpt>
      <trkpt lat="59.44400313215" lon="17.979591493697">
        <ele>39.2</ele>
        <time>2018-04-21T10:01:30Z</time>
      </trkpt>
      <trkpt lat="59.443908165223" lon="17.979531479293">
        <ele>40.2</ele>
        <time>2018-04-21T10:01:39Z</time>
      </trkpt>
      <trkpt lat="59.443904561006" lon="17.97946132279">
        <ele>40</ele>
        <time>2018-04-21T10:01:42Z</time>
      </trkpt>
      <trkpt lat="59.443879750582" lon="17.979432237597">
        <ele>40</ele>
        <time>2018-04-21T10:01:44Z</time>
      </trkpt>
      <trkpt lat="59.443772378443" lon="17.979279351741">
        <ele>40.6</ele>
        <time>2018-04-21T10:01:51Z</time>
      </trkpt>
      <trkpt lat="59.443762655439" lon="17.979273819687">
        <ele>41</ele>
        <time>2018-04-21T10:01:52Z</time>
      </trkpt>
      <trkpt lat="59.443773803366" lon="17.979302485785">
        <ele>41.6</ele>
        <time>2018-04-21T10:01:54Z</time>
      </trkpt>
      <trkpt lat="59.443670203082" lon="17.979416479625">
        <ele>42.8</ele>
        <time>2018-04-21T10:01:59Z</time>
      </trkpt>
      <trkpt lat="59.443544390763" lon="17.979415809073">
        <ele>43.2</ele>
        <time>2018-04-21T10:02:00Z</time>
      </trkpt>
      <trkpt lat="59.443514132104" lon="17.979498873702">
        <ele>44</ele>
        <time>2018-04-21T10:02:02Z</time>
      </trkpt>
      <trkpt lat="59.443464092161" lon="17.979583027978">
        <ele>45.2</ele>
        <time>2018-04-21T10:02:04Z</time>
      </trkpt>
      <trkpt lat="59.44349099806" lon="17.979663075123">
        <ele>45.2</ele>
        <time>2018-04-21T10:02:05Z</time>
      </trkpt>
      <trkpt lat="59.443304165509" lon="17.979822750318">
        <ele>45</ele>
        <time>2018-04-21T10:02:09Z</time>
      </trkpt>
      <trkpt lat="59.443275331773" lon="17.979886620396">
        <ele>44.8</ele>
        <time>2018-04-21T10:02:11Z</time>
      </trkpt>
      <trkpt lat="59.443069137033" lon="17.980107818737">
        <ele>44.4</ele>
        <time>2018-04-21T10:02:16Z</time>
      </trkpt>
      <trkpt lat="59.443004177308" lon="17.980176801774">
        <ele>44</ele>
        <time>2018-04-21T10:02:18Z</time>
      </trkpt>
      <trkpt lat="59.442831258711" lon="17.980373692605">
        <ele>43.4</ele>
        <time>2018-04-21T10:02:23Z</time>
      </trkpt>
      <trkpt lat="59.44274668534" lon="17.980484668961">
        <ele>43</ele>
        <time>2018-04-21T10:02:26Z</time>
      </trkpt>
      <trkpt lat="59.442558511685" lon="17.980675692462">
        <ele>42</ele>
        <time>2018-04-21T10:02:32Z</time>
      </trkpt>
      <trkpt lat="59.442511908321" lon="17.980704107103">
        <ele>41.8</ele>
        <time>2018-04-21T10:02:33Z</time>
      </trkpt>
      <trkpt lat="59.442324656675" lon="17.98088121665">
        <ele>41.2</ele>
        <time>2018-04-21T10:02:38Z</time>
      </trkpt>
      <trkpt lat="59.442259110217" lon="17.980944835271">
        <ele>40.6</ele>
        <time>2018-04-21T10:02:40Z</time>
      </trkpt>
      <trkpt lat="59.442079821376" lon="17.981074587083">
        <ele>40</ele>
        <time>2018-04-21T10:02:45Z</time>
      </trkpt>
      <trkpt lat="59.44194705208" lon="17.981132338374">
        <ele>39.4</ele>
        <time>2018-04-21T10:02:49Z</time>
      </trkpt>
      <trkpt lat="59.441761728271" lon="17.981227808215">
        <ele>38.4</ele>
        <time>2018-04-21T10:02:53Z</time>
      </trkpt>
      <trkpt lat="59.441733900363" lon="17.981280278909">
        <ele>38.2</ele>
        <time>2018-04-21T10:02:54Z</time>
      </trkpt>
      <trkpt lat="59.441607501311" lon="17.981406426504">
        <ele>36.4</ele>
        <time>2018-04-21T10:02:58Z</time>
      </trkpt>
      <trkpt lat="59.441593168262" lon="17.981521007077">
        <ele>35.2</ele>
        <time>2018-04-21T10:03:00Z</time>
      </trkpt>
      <trkpt lat="59.441523514673" lon="17.981714461329">
        <ele>34</ele>
        <time>2018-04-21T10:03:04Z</time>
      </trkpt>
      <trkpt lat="59.441477581861" lon="17.981820660002">
        <ele>32.8</ele>
        <time>2018-04-21T10:03:07Z</time>
      </trkpt>
      <trkpt lat="59.441335927751" lon="17.982033895538">
        <ele>32.6</ele>
        <time>2018-04-21T10:03:13Z</time>
      </trkpt>
      <trkpt lat="59.441288067102" lon="17.982107404801">
        <ele>32.6</ele>
        <time>2018-04-21T10:03:15Z</time>
      </trkpt>
      <trkpt lat="59.441147335001" lon="17.982322400536">
        <ele>32.4</ele>
        <time>2018-04-21T10:03:22Z</time>
      </trkpt>
      <trkpt lat="59.4410149848" lon="17.982558183383">
        <ele>32.6</ele>
        <time>2018-04-21T10:03:28Z</time>
      </trkpt>
      <trkpt lat="59.440917419484" lon="17.982793547135">
        <ele>31.6</ele>
        <time>2018-04-21T10:03:34Z</time>
      </trkpt>
      <trkpt lat="59.440912641801" lon="17.983197387077">
        <ele>30.8</ele>
        <time>2018-04-21T10:03:41Z</time>
      </trkpt>
      <trkpt lat="59.440779621048" lon="17.983469379732">
        <ele>31.4</ele>
        <time>2018-04-21T10:03:48Z</time>
      </trkpt>
      <trkpt lat="59.440674847298" lon="17.983541296434">
        <ele>31.4</ele>
        <time>2018-04-21T10:03:54Z</time>
      </trkpt>
      <trkpt lat="59.44060008075" lon="17.983625115434">
        <ele>31</ele>
        <time>2018-04-21T10:03:59Z</time>
      </trkpt>
      <trkpt lat="59.440599494017" lon="17.983730140641">
        <ele>31</ele>
        <time>2018-04-21T10:04:02Z</time>
      </trkpt>
      <trkpt lat="59.440726144526" lon="17.984145463786">
        <ele>31.8</ele>
        <time>2018-04-21T10:04:08Z</time>
      </trkpt>
      <trkpt lat="59.440557668336" lon="17.984242861464">
        <ele>31.8</ele>
        <time>2018-04-21T10:04:11Z</time>
      </trkpt>
      <trkpt lat="59.44035616746" lon="17.984464981814">
        <ele>30</ele>
        <time>2018-04-21T10:04:17Z</time>
      </trkpt>
      <trkpt lat="59.440260278524" lon="17.984640750257">
        <ele>28.8</ele>
        <time>2018-04-21T10:04:19Z</time>
      </trkpt>
      <trkpt lat="59.440185679614" lon="17.984807633886">
        <ele>27.6</ele>
        <time>2018-04-21T10:04:22Z</time>
      </trkpt>
      <trkpt lat="59.440010414085" lon="17.984954484774">
        <ele>26.6</ele>
        <time>2018-04-21T10:04:28Z</time>
      </trkpt>
      <trkpt lat="59.439950734957" lon="17.984988263831">
        <ele>26.4</ele>
        <time>2018-04-21T10:04:29Z</time>
      </trkpt>
      <trkpt lat="59.439798435834" lon="17.985172162717">
        <ele>25.8</ele>
        <time>2018-04-21T10:04:33Z</time>
      </trkpt>
      <trkpt lat="59.439696344292" lon="17.985338124337">
        <ele>25.2</ele>
        <time>2018-04-21T10:04:36Z</time>
      </trkpt>
      <trkpt lat="59.439543542255" lon="17.985560663782">
        <ele>24.4</ele>
        <time>2018-04-21T10:04:41Z</time>
      </trkpt>
      <trkpt lat="59.439513367415" lon="17.985600477807">
        <ele>24</ele>
        <time>2018-04-21T10:04:42Z</time>
      </trkpt>
      <trkpt lat="59.439397026643" lon="17.985809354755">
        <ele>23</ele>
        <time>2018-04-21T10:04:47Z</time>
      </trkpt>
      <trkpt lat="59.439340364999" lon="17.986164495858">
        <ele>23.8</ele>
        <time>2018-04-21T10:04:53Z</time>
      </trkpt>
      <trkpt lat="59.439330558176" lon="17.986198945467">
        <ele>24.2</ele>
        <time>2018-04-21T10:04:54Z</time>
      </trkpt>
      <trkpt lat="59.439292839626" lon="17.98629927681">
        <ele>25.4</ele>
        <time>2018-04-21T10:04:58Z</time>
      </trkpt>
      <trkpt lat="59.439329887624" lon="17.986464903154">
        <ele>26.2</ele>
        <time>2018-04-21T10:05:01Z</time>
      </trkpt>
      <trkpt lat="59.439334581488" lon="17.986528354137">
        <ele>26.8</ele>
        <time>2018-04-21T10:05:02Z</time>
      </trkpt>
      <trkpt lat="59.439341538465" lon="17.98669909344">
        <ele>28</ele>
        <time>2018-04-21T10:05:05Z</time>
      </trkpt>
      <trkpt lat="59.439400463222" lon="17.987047696661">
        <ele>27.6</ele>
        <time>2018-04-21T10:05:10Z</time>
      </trkpt>
      <trkpt lat="59.439493418493" lon="17.987315079271">
        <ele>26.8</ele>
        <time>2018-04-21T10:05:14Z</time>
      </trkpt>
      <trkpt lat="59.439615291319" lon="17.987674495143">
        <ele>26.8</ele>
        <time>2018-04-21T10:05:21Z</time>
      </trkpt>
      <trkpt lat="59.439664912167" lon="17.987920755365">
        <ele>25.6</ele>
        <time>2018-04-21T10:05:26Z</time>
      </trkpt>
      <trkpt lat="59.439670192764" lon="17.988284697463">
        <ele>24.8</ele>
        <time>2018-04-21T10:05:31Z</time>
      </trkpt>
      <trkpt lat="59.439670192764" lon="17.988284697463">
        <ele>24.4</ele>
        <time>2018-04-21T10:05:32Z</time>
      </trkpt>
      <trkpt lat="59.439718053413" lon="17.988640509118">
        <ele>23.6</ele>
        <time>2018-04-21T10:05:37Z</time>
      </trkpt>
      <trkpt lat="59.439739511077" lon="17.988906466805">
        <ele>23.2</ele>
        <time>2018-04-21T10:05:41Z</time>
      </trkpt>
      <trkpt lat="59.439791730314" lon="17.989280970097">
        <ele>22.6</ele>
        <time>2018-04-21T10:05:47Z</time>
      </trkpt>
      <trkpt lat="59.439849649243" lon="17.989524296654">
        <ele>22</ele>
        <time>2018-04-21T10:05:51Z</time>
      </trkpt>
      <trkpt lat="59.439911256208" lon="17.989856806627">
        <ele>22</ele>
        <time>2018-04-21T10:05:57Z</time>
      </trkpt>
      <trkpt lat="59.439932965329" lon="17.990256539438">
        <ele>22.4</ele>
        <time>2018-04-21T10:06:04Z</time>
      </trkpt>
      <trkpt lat="59.439897006978" lon="17.990605645573">
        <ele>22.8</ele>
        <time>2018-04-21T10:06:11Z</time>
      </trkpt>
      <trkpt lat="59.439885775232" lon="17.99086573593">
        <ele>23.2</ele>
        <time>2018-04-21T10:06:16Z</time>
      </trkpt>
      <trkpt lat="59.4398750464" lon="17.991220206481">
        <ele>23.6</ele>
        <time>2018-04-21T10:06:23Z</time>
      </trkpt>
      <trkpt lat="59.439875968409" lon="17.991608791365">
        <ele>23</ele>
        <time>2018-04-21T10:06:31Z</time>
      </trkpt>
      <trkpt lat="59.439832801624" lon="17.991957646043">
        <ele>22.8</ele>
        <time>2018-04-21T10:06:38Z</time>
      </trkpt>
      <trkpt lat="59.439901952299" lon="17.992292754405">
        <ele>24</ele>
        <time>2018-04-21T10:06:46Z</time>
      </trkpt>
      <trkpt lat="59.439939754668" lon="17.992310021119">
        <ele>24.2</ele>
        <time>2018-04-21T10:06:47Z</time>
      </trkpt>
      <trkpt lat="59.440095741827" lon="17.992491489254">
        <ele>25.2</ele>
        <time>2018-04-21T10:06:54Z</time>
      </trkpt>
      <trkpt lat="59.440113762912" lon="17.992508755968">
        <ele>25.4</ele>
        <time>2018-04-21T10:06:55Z</time>
      </trkpt>
      <trkpt lat="59.440178219723" lon="17.992552760943">
        <ele>26.6</ele>
        <time>2018-04-21T10:06:58Z</time>
      </trkpt>
      <trkpt lat="59.44037209307" lon="17.992654517209">
        <ele>27.2</ele>
        <time>2018-04-21T10:07:04Z</time>
      </trkpt>
      <trkpt lat="59.440575521783" lon="17.992777312044">
        <ele>27</ele>
        <time>2018-04-21T10:07:09Z</time>
      </trkpt>
      <trkpt lat="59.440789930785" lon="17.99289499392">
        <ele>26.6</ele>
        <time>2018-04-21T10:07:13Z</time>
      </trkpt>
      <trkpt lat="59.440972069472" lon="17.992995911996">
        <ele>26.8</ele>
        <time>2018-04-21T10:07:18Z</time>
      </trkpt>
      <trkpt lat="59.441146161535" lon="17.99310035047">
        <ele>27</ele>
        <time>2018-04-21T10:07:23Z</time>
      </trkpt>
      <trkpt lat="59.441328719317" lon="17.99325960657">
        <ele>26.4</ele>
        <time>2018-04-21T10:07:30Z</time>
      </trkpt>
      <trkpt lat="59.441432822515" lon="17.993394303703">
        <ele>25.4</ele>
        <time>2018-04-21T10:07:34Z</time>
      </trkpt>
      <trkpt lat="59.441488813607" lon="17.99349429977">
        <ele>24.4</ele>
        <time>2018-04-21T10:07:37Z</time>
      </trkpt>
      <trkpt lat="59.441541116663" lon="17.993579208417">
        <ele>23.2</ele>
        <time>2018-04-21T10:07:40Z</time>
      </trkpt>
      <trkpt lat="59.441583780534" lon="17.99364685035">
        <ele>22.2</ele>
        <time>2018-04-21T10:07:43Z</time>
      </trkpt>
      <trkpt lat="59.441663324765" lon="17.993719186147">
        <ele>21</ele>
        <time>2018-04-21T10:07:46Z</time>
      </trkpt>
      <trkpt lat="59.441815288612" lon="17.993760425095">
        <ele>21.6</ele>
        <time>2018-04-21T10:07:57Z</time>
      </trkpt>
      <trkpt lat="59.441852588067" lon="17.993764448407">
        <ele>22</ele>
        <time>2018-04-21T10:07:59Z</time>
      </trkpt>
      <trkpt lat="59.441882679088" lon="17.99377090247">
        <ele>22.4</ele>
        <time>2018-04-21T10:08:00Z</time>
      </trkpt>
      <trkpt lat="59.44194369932" lon="17.993805687355">
        <ele>22.6</ele>
        <time>2018-04-21T10:08:02Z</time>
      </trkpt>
      <trkpt lat="59.442051574373" lon="17.993867461958">
        <ele>23.6</ele>
        <time>2018-04-21T10:08:06Z</time>
      </trkpt>
      <trkpt lat="59.442238406924" lon="17.99398715549">
        <ele>24</ele>
        <time>2018-04-21T10:08:11Z</time>
      </trkpt>
      <trkpt lat="59.442427167312" lon="17.99400811024">
        <ele>23.2</ele>
        <time>2018-04-21T10:08:16Z</time>
      </trkpt>
      <trkpt lat="59.4425321087" lon="17.994016575959">
        <ele>22.6</ele>
        <time>2018-04-21T10:08:20Z</time>
      </trkpt>
      <trkpt lat="59.442666051462" lon="17.994024957859">
        <ele>21.2</ele>
        <time>2018-04-21T10:08:25Z</time>
      </trkpt>
      <trkpt lat="59.442741404743" lon="17.993934684796">
        <ele>20</ele>
        <time>2018-04-21T10:08:29Z</time>
      </trkpt>
      <trkpt lat="59.442807202658" lon="17.993820439499">
        <ele>18.8</ele>
        <time>2018-04-21T10:08:33Z</time>
      </trkpt>
      <trkpt lat="59.442886746889" lon="17.993679036846">
        <ele>19.4</ele>
        <time>2018-04-21T10:08:42Z</time>
      </trkpt>
      <trkpt lat="59.442893452409" lon="17.993659171743">
        <ele>19.8</ele>
        <time>2018-04-21T10:08:44Z</time>
      </trkpt>
      <trkpt lat="59.442897810997" lon="17.993636540613">
        <ele>20</ele>
        <time>2018-04-21T10:08:45Z</time>
      </trkpt>
      <trkpt lat="59.442949946415" lon="17.99357057506">
        <ele>20.2</ele>
        <time>2018-04-21T10:08:48Z</time>
      </trkpt>
      <trkpt lat="59.443134180577" lon="17.993483487119">
        <ele>18.6</ele>
        <time>2018-04-21T10:08:55Z</time>
      </trkpt>
      <trkpt lat="59.443286228243" lon="17.993455659211">
        <ele>17.6</ele>
        <time>2018-04-21T10:08:59Z</time>
      </trkpt>
      <trkpt lat="59.443355127461" lon="17.993392292047">
        <ele>16.4</ele>
        <time>2018-04-21T10:09:02Z</time>
      </trkpt>
      <trkpt lat="59.443428972" lon="17.993308975961">
        <ele>15</ele>
        <time>2018-04-21T10:09:05Z</time>
      </trkpt>
      <trkpt lat="59.443490243689" lon="17.993146534739">
        <ele>14</ele>
        <time>2018-04-21T10:09:09Z</time>
      </trkpt>
      <trkpt lat="59.443616139827" lon="17.992918211783">
        <ele>15</ele>
        <time>2018-04-21T10:09:14Z</time>
      </trkpt>
      <trkpt lat="59.443747735657" lon="17.992645967671">
        <ele>15.8</ele>
        <time>2018-04-21T10:09:21Z</time>
      </trkpt>
      <trkpt lat="59.443763158353" lon="17.992609338768">
        <ele>16</ele>
        <time>2018-04-21T10:09:22Z</time>
      </trkpt>
      <trkpt lat="59.443855107796" lon="17.992430385203">
        <ele>17.2</ele>
        <time>2018-04-21T10:09:27Z</time>
      </trkpt>
      <trkpt lat="59.443948733619" lon="17.992284540143">
        <ele>18.2</ele>
        <time>2018-04-21T10:09:31Z</time>
      </trkpt>
      <trkpt lat="59.4440576145" lon="17.992004919959">
        <ele>19.2</ele>
        <time>2018-04-21T10:09:37Z</time>
      </trkpt>
      <trkpt lat="59.444053004455" lon="17.991932416524">
        <ele>19.4</ele>
        <time>2018-04-21T10:09:38Z</time>
      </trkpt>
      <trkpt lat="59.444096255059" lon="17.991696801315">
        <ele>20.6</ele>
        <time>2018-04-21T10:09:43Z</time>
      </trkpt>
      <trkpt lat="59.44414478626" lon="17.991587082244">
        <ele>21.6</ele>
        <time>2018-04-21T10:09:47Z</time>
      </trkpt>
      <trkpt lat="59.44418082843" lon="17.991539556871">
        <ele>22.6</ele>
        <time>2018-04-21T10:09:50Z</time>
      </trkpt>
      <trkpt lat="59.444237238617" lon="17.991493121145">
        <ele>23.6</ele>
        <time>2018-04-21T10:09:54Z</time>
      </trkpt>
      <trkpt lat="59.444269257475" lon="17.991489433109">
        <ele>23.8</ele>
        <time>2018-04-21T10:09:55Z</time>
      </trkpt>
      <trkpt lat="59.444452485809" lon="17.991463449219">
        <ele>23.8</ele>
        <time>2018-04-21T10:10:02Z</time>
      </trkpt>
      <trkpt lat="59.44463931836" lon="17.991459090631">
        <ele>23.8</ele>
        <time>2018-04-21T10:10:07Z</time>
      </trkpt>
      <trkpt lat="59.444757419331" lon="17.991432268551">
        <ele>24.8</ele>
        <time>2018-04-21T10:10:11Z</time>
      </trkpt>
      <trkpt lat="59.444850626059" lon="17.991437800605">
        <ele>26</ele>
        <time>2018-04-21T10:10:15Z</time>
      </trkpt>
      <trkpt lat="59.444961853872" lon="17.991445511953">
        <ele>27.2</ele>
        <time>2018-04-21T10:10:19Z</time>
      </trkpt>
      <trkpt lat="59.444971493057" lon="17.991455905509">
        <ele>27.8</ele>
        <time>2018-04-21T10:10:20Z</time>
      </trkpt>
      <trkpt lat="59.445021784457" lon="17.99147677644">
        <ele>28.4</ele>
        <time>2018-04-21T10:10:22Z</time>
      </trkpt>
      <trkpt lat="59.445108201846" lon="17.991510555497">
        <ele>30</ele>
        <time>2018-04-21T10:10:26Z</time>
      </trkpt>
      <trkpt lat="59.445216328356" lon="17.991547100581">
        <ele>31.6</ele>
        <time>2018-04-21T10:10:29Z</time>
      </trkpt>
      <trkpt lat="59.44527299" lon="17.991562690915">
        <ele>31.6</ele>
        <time>2018-04-21T10:10:30Z</time>
      </trkpt>
      <trkpt lat="59.445407854771" lon="17.99173577715">
        <ele>32.6</ele>
        <time>2018-04-21T10:10:35Z</time>
      </trkpt>
      <trkpt lat="59.445549760338" lon="17.991943983546">
        <ele>33</ele>
        <time>2018-04-21T10:10:40Z</time>
      </trkpt>
      <trkpt lat="59.445678925417" lon="17.992085470018">
        <ele>33.6</ele>
        <time>2018-04-21T10:10:45Z</time>
      </trkpt>
      <trkpt lat="59.445793338352" lon="17.992141796386">
        <ele>34.6</ele>
        <time>2018-04-21T10:10:54Z</time>
      </trkpt>
      <trkpt lat="59.445986205871" lon="17.992095863574">
        <ele>34.2</ele>
        <time>2018-04-21T10:11:02Z</time>
      </trkpt>
      <trkpt lat="59.446164740341" lon="17.992014642963">
        <ele>34.6</ele>
        <time>2018-04-21T10:11:09Z</time>
      </trkpt>
      <trkpt lat="59.44635341691" lon="17.991978349336">
        <ele>34.8</ele>
        <time>2018-04-21T10:11:19Z</time>
      </trkpt>
      <trkpt lat="59.446537986348" lon="17.99198891053">
        <ele>33.8</ele>
        <time>2018-04-21T10:11:26Z</time>
      </trkpt>
      <trkpt lat="59.446573525604" lon="17.991996873335">
        <ele>33.4</ele>
        <time>2018-04-21T10:11:28Z</time>
      </trkpt>
      <trkpt lat="59.446690956023" lon="17.991950437609">
        <ele>32.2</ele>
        <time>2018-04-21T10:11:33Z</time>
      </trkpt>
      <trkpt lat="59.446835879074" lon="17.991846669687">
        <ele>31</ele>
        <time>2018-04-21T10:11:39Z</time>
      </trkpt>
      <trkpt lat="59.447011731336" lon="17.991680372791">
        <ele>31</ele>
        <time>2018-04-21T10:11:47Z</time>
      </trkpt>
      <trkpt lat="59.447127233918" lon="17.991474429508">
        <ele>30.8</ele>
        <time>2018-04-21T10:11:56Z</time>
      </trkpt>
      <trkpt lat="59.447148272487" lon="17.991443500297">
        <ele>31.2</ele>
        <time>2018-04-21T10:11:58Z</time>
      </trkpt>
      <trkpt lat="59.447327142233" lon="17.991264798189">
        <ele>30.4</ele>
        <time>2018-04-21T10:12:06Z</time>
      </trkpt>
      <trkpt lat="59.447403166066" lon="17.991164215389">
        <ele>29.8</ele>
        <time>2018-04-21T10:12:09Z</time>
      </trkpt>
      <trkpt lat="59.44754867585" lon="17.990935054243">
        <ele>30</ele>
        <time>2018-04-21T10:12:15Z</time>
      </trkpt>
      <trkpt lat="59.447713212547" lon="17.990670102384">
        <ele>30.6</ele>
        <time>2018-04-21T10:12:21Z</time>
      </trkpt>
      <trkpt lat="59.447879928538" lon="17.990481174358">
        <ele>30.8</ele>
        <time>2018-04-21T10:12:26Z</time>
      </trkpt>
      <trkpt lat="59.447925526074" lon="17.990448904043">
        <ele>30.8</ele>
        <time>2018-04-21T10:12:27Z</time>
      </trkpt>
      <trkpt lat="59.448060558483" lon="17.99026810646">
        <ele>31</ele>
        <time>2018-04-21T10:12:32Z</time>
      </trkpt>
      <trkpt lat="59.448138677791" lon="17.989956215961">
        <ele>31</ele>
        <time>2018-04-21T10:12:39Z</time>
      </trkpt>
      <trkpt lat="59.448211767959" lon="17.989655473389">
        <ele>30.6</ele>
        <time>2018-04-21T10:12:45Z</time>
      </trkpt>
      <trkpt lat="59.448237584211" lon="17.989479621127">
        <ele>29.8</ele>
        <time>2018-04-21T10:12:47Z</time>
      </trkpt>
      <trkpt lat="59.448335484803" lon="17.989394209566">
        <ele>28.6</ele>
        <time>2018-04-21T10:12:50Z</time>
      </trkpt>
      <trkpt lat="59.448261891721" lon="17.989201425866">
        <ele>27.6</ele>
        <time>2018-04-21T10:12:52Z</time>
      </trkpt>
      <trkpt lat="59.448258119866" lon="17.989140321815">
        <ele>27.2</ele>
        <time>2018-04-21T10:12:53Z</time>
      </trkpt>
      <trkpt lat="59.448325510342" lon="17.98899489585">
        <ele>26</ele>
        <time>2018-04-21T10:12:57Z</time>
      </trkpt>
      <trkpt lat="59.448431541377" lon="17.988872352472">
        <ele>24.8</ele>
        <time>2018-04-21T10:13:01Z</time>
      </trkpt>
      <trkpt lat="59.448620972317" lon="17.988723741385">
        <ele>24</ele>
        <time>2018-04-21T10:13:08Z</time>
      </trkpt>
      <trkpt lat="59.448782240073" lon="17.988519223025">
        <ele>24.2</ele>
        <time>2018-04-21T10:13:15Z</time>
      </trkpt>
      <trkpt lat="59.448968653529" lon="17.988413275809">
        <ele>24.4</ele>
        <time>2018-04-21T10:13:21Z</time>
      </trkpt>
      <trkpt lat="59.449062866085" lon="17.988207248707">
        <ele>24</ele>
        <time>2018-04-21T10:13:31Z</time>
      </trkpt>
      <trkpt lat="59.449117851349" lon="17.988177744419">
        <ele>23.8</ele>
        <time>2018-04-21T10:13:34Z</time>
      </trkpt>
      <trkpt lat="59.449294541801" lon="17.988102642595">
        <ele>23</ele>
        <time>2018-04-21T10:13:42Z</time>
      </trkpt>
      <trkpt lat="59.449479111239" lon="17.987963335417">
        <ele>23</ele>
        <time>2018-04-21T10:13:48Z</time>
      </trkpt>
      <trkpt lat="59.449521020739" lon="17.987895106751">
        <ele>22.6</ele>
        <time>2018-04-21T10:13:50Z</time>
      </trkpt>
      <trkpt lat="59.449697711191" lon="17.987681619758">
        <ele>22.8</ele>
        <time>2018-04-21T10:13:56Z</time>
      </trkpt>
      <trkpt lat="59.449880268973" lon="17.987581623691">
        <ele>22.8</ele>
        <time>2018-04-21T10:14:01Z</time>
      </trkpt>
      <trkpt lat="59.450067017705" lon="17.987474503009">
        <ele>22.4</ele>
        <time>2018-04-21T10:14:05Z</time>
      </trkpt>
      <trkpt lat="59.450257370654" lon="17.987341817532">
        <ele>22.4</ele>
        <time>2018-04-21T10:14:09Z</time>
      </trkpt>
      <trkpt lat="59.45010431716" lon="17.9869539032">
        <ele>21.4</ele>
        <time>2018-04-21T10:14:13Z</time>
      </trkpt>
      <trkpt lat="59.450064670773" lon="17.986725161149">
        <ele>20.2</ele>
        <time>2018-04-21T10:14:17Z</time>
      </trkpt>
      <trkpt lat="59.450019911427" lon="17.986521816255">
        <ele>19</ele>
        <time>2018-04-21T10:14:25Z</time>
      </trkpt>
      <trkpt lat="59.450032568096" lon="17.986519217866">
        <ele>19</ele>
        <time>2018-04-21T10:14:26Z</time>
      </trkpt>
      <trkpt lat="59.450146561936" lon="17.98646272386">
        <ele>19.2</ele>
        <time>2018-04-21T10:14:31Z</time>
      </trkpt>
      <trkpt lat="59.45035158321" lon="17.986278405879">
        <ele>18.8</ele>
        <time>2018-04-21T10:14:38Z</time>
      </trkpt>
      <trkpt lat="59.450530452956" lon="17.986104984368">
        <ele>18.2</ele>
        <time>2018-04-21T10:14:42Z</time>
      </trkpt>
      <trkpt lat="59.450552664991" lon="17.986054860606">
        <ele>18</ele>
        <time>2018-04-21T10:14:43Z</time>
      </trkpt>
      <trkpt lat="59.450672190885" lon="17.985774988965">
        <ele>17.6</ele>
        <time>2018-04-21T10:14:49Z</time>
      </trkpt>
      <trkpt lat="59.450815186099" lon="17.98554071486">
        <ele>17.2</ele>
        <time>2018-04-21T10:14:54Z</time>
      </trkpt>
      <trkpt lat="59.45097435838" lon="17.985316415216">
        <ele>18</ele>
        <time>2018-04-21T10:15:00Z</time>
      </trkpt>
      <trkpt lat="59.450957007847" lon="17.984986000718">
        <ele>19</ele>
        <time>2018-04-21T10:15:07Z</time>
      </trkpt>
      <trkpt lat="59.451065134357" lon="17.984652401098">
        <ele>18.8</ele>
        <time>2018-04-21T10:15:14Z</time>
      </trkpt>
      <trkpt lat="59.451181894224" lon="17.984376888045">
        <ele>18</ele>
        <time>2018-04-21T10:15:19Z</time>
      </trkpt>
      <trkpt lat="59.45132304542" lon="17.98408980797">
        <ele>17.6</ele>
        <time>2018-04-21T10:15:23Z</time>
      </trkpt>
      <trkpt lat="59.451447348997" lon="17.983793256348">
        <ele>17.8</ele>
        <time>2018-04-21T10:15:29Z</time>
      </trkpt>
      <trkpt lat="59.451537873517" lon="17.983449766086">
        <ele>18.4</ele>
        <time>2018-04-21T10:15:37Z</time>
      </trkpt>
      <trkpt lat="59.451584141605" lon="17.983119854502">
        <ele>18</ele>
        <time>2018-04-21T10:15:48Z</time>
      </trkpt>
      <trkpt lat="59.45175974241" lon="17.982965711361">
        <ele>18.2</ele>
        <time>2018-04-21T10:15:59Z</time>
      </trkpt>
      <trkpt lat="59.452015977093" lon="17.982854902643">
        <ele>18.4</ele>
        <time>2018-04-21T10:16:05Z</time>
      </trkpt>
      <trkpt lat="59.452203228739" lon="17.982761444458">
        <ele>17.8</ele>
        <time>2018-04-21T10:16:11Z</time>
      </trkpt>
      <trkpt lat="59.452326023574" lon="17.982571259147">
        <ele>18</ele>
        <time>2018-04-21T10:16:19Z</time>
      </trkpt>
      <trkpt lat="59.452427444564" lon="17.982437484023">
        <ele>19.2</ele>
        <time>2018-04-21T10:16:23Z</time>
      </trkpt>
      <trkpt lat="59.452487878063" lon="17.982286358366">
        <ele>20.2</ele>
        <time>2018-04-21T10:16:27Z</time>
      </trkpt>
      <trkpt lat="59.452525345156" lon="17.982110506104">
        <ele>20.6</ele>
        <time>2018-04-21T10:16:33Z</time>
      </trkpt>
      <trkpt lat="59.452542695689" lon="17.981949238348">
        <ele>20.6</ele>
        <time>2018-04-21T10:16:37Z</time>
      </trkpt>
      <trkpt lat="59.45254177368" lon="17.981824012762">
        <ele>20.8</ele>
        <time>2018-04-21T10:16:40Z</time>
      </trkpt>
      <trkpt lat="59.452556106729" lon="17.981715970071">
        <ele>21.4</ele>
        <time>2018-04-21T10:16:43Z</time>
      </trkpt>
      <trkpt lat="59.452534313789" lon="17.981610777226">
        <ele>22</ele>
        <time>2018-04-21T10:16:46Z</time>
      </trkpt>
      <trkpt lat="59.452347984152" lon="17.981386896677">
        <ele>22.6</ele>
        <time>2018-04-21T10:16:49Z</time>
      </trkpt>
      <trkpt lat="59.452270283939" lon="17.98113854098">
        <ele>23</ele>
        <time>2018-04-21T10:16:53Z</time>
      </trkpt>
      <trkpt lat="59.452262824048" lon="17.980995881042">
        <ele>23</ele>
        <time>2018-04-21T10:16:56Z</time>
      </trkpt>
      <trkpt lat="59.452298447123" lon="17.980784238067">
        <ele>23.6</ele>
        <time>2018-04-21T10:17:01Z</time>
      </trkpt>
      <trkpt lat="59.452325688298" lon="17.980741741834">
        <ele>23.6</ele>
        <time>2018-04-21T10:17:03Z</time>
      </trkpt>
      <trkpt lat="59.452227536249" lon="17.98036489161">
        <ele>24.6</ele>
        <time>2018-04-21T10:17:15Z</time>
      </trkpt>
      <trkpt lat="59.452213119381" lon="17.980336644607">
        <ele>24.8</ele>
        <time>2018-04-21T10:17:16Z</time>
      </trkpt>
      <trkpt lat="59.452173221537" lon="17.980289957424">
        <ele>25.4</ele>
        <time>2018-04-21T10:17:18Z</time>
      </trkpt>
      <trkpt lat="59.452191577898" lon="17.980237319092">
        <ele>25.8</ele>
        <time>2018-04-21T10:17:20Z</time>
      </trkpt>
      <trkpt lat="59.452195433572" lon="17.980207395709">
        <ele>25.8</ele>
        <time>2018-04-21T10:17:21Z</time>
      </trkpt>
      <trkpt lat="59.452170204053" lon="17.98010924366">
        <ele>26.4</ele>
        <time>2018-04-21T10:17:24Z</time>
      </trkpt>
      <trkpt lat="59.452153272615" lon="17.980040763537">
        <ele>26.8</ele>
        <time>2018-04-21T10:17:26Z</time>
      </trkpt>
      <trkpt lat="59.452130473847" lon="17.980013522362">
        <ele>26.8</ele>
        <time>2018-04-21T10:17:27Z</time>
      </trkpt>
      <trkpt lat="59.452120499386" lon="17.97991813634">
        <ele>27.2</ele>
        <time>2018-04-21T10:17:30Z</time>
      </trkpt>
      <trkpt lat="59.452074818031" lon="17.979841693412">
        <ele>28</ele>
        <time>2018-04-21T10:17:33Z</time>
      </trkpt>
      <trkpt lat="59.452030226323" lon="17.979757036222">
        <ele>29.2</ele>
        <time>2018-04-21T10:17:37Z</time>
      </trkpt>
      <trkpt lat="59.452002566053" lon="17.97951580514">
        <ele>29.4</ele>
        <time>2018-04-21T10:17:43Z</time>
      </trkpt>
      <trkpt lat="59.451972726489" lon="17.979410779933">
        <ele>29.4</ele>
        <time>2018-04-21T10:17:46Z</time>
      </trkpt>
      <trkpt lat="59.451859151744" lon="17.979034013528">
        <ele>28.6</ele>
        <time>2018-04-21T10:17:53Z</time>
      </trkpt>
      <trkpt lat="59.451723784059" lon="17.97888883902">
        <ele>29</ele>
        <time>2018-04-21T10:17:56Z</time>
      </trkpt>
      <trkpt lat="59.451672067736" lon="17.97887794255">
        <ele>29.6</ele>
        <time>2018-04-21T10:18:03Z</time>
      </trkpt>
      <trkpt lat="59.451695872332" lon="17.978853718859">
        <ele>30.2</ele>
        <time>2018-04-21T10:18:06Z</time>
      </trkpt>
      <trkpt lat="59.451701404386" lon="17.978851791022">
        <ele>30.6</ele>
        <time>2018-04-21T10:18:07Z</time>
      </trkpt>
      <trkpt lat="59.451742224239" lon="17.978835949231">
        <ele>30.8</ele>
        <time>2018-04-21T10:18:10Z</time>
      </trkpt>
      <trkpt lat="59.451792683277" lon="17.978791273704">
        <ele>31.4</ele>
        <time>2018-04-21T10:18:13Z</time>
      </trkpt>
      <trkpt lat="59.451805423765" lon="17.97877903613">
        <ele>31.6</ele>
        <time>2018-04-21T10:18:14Z</time>
      </trkpt>
      <trkpt lat="59.451872227508" lon="17.978762691425">
        <ele>32</ele>
        <time>2018-04-21T10:18:17Z</time>
      </trkpt>
      <trkpt lat="59.451896870294" lon="17.978762775244">
        <ele>32.4</ele>
        <time>2018-04-21T10:18:19Z</time>
      </trkpt>
      <trkpt lat="59.451921429261" lon="17.978773755533">
        <ele>32.8</ele>
        <time>2018-04-21T10:18:20Z</time>
      </trkpt>
      <trkpt lat="59.452063083371" lon="17.978787837125">
        <ele>33.8</ele>
        <time>2018-04-21T10:18:22Z</time>
      </trkpt>
      <trkpt lat="59.452274558708" lon="17.978765122176">
        <ele>34.2</ele>
        <time>2018-04-21T10:18:30Z</time>
      </trkpt>
      <trkpt lat="59.452313618362" lon="17.978749028928">
        <ele>34</ele>
        <time>2018-04-21T10:18:31Z</time>
      </trkpt>
      <trkpt lat="59.4525065697" lon="17.978688679248">
        <ele>33.2</ele>
        <time>2018-04-21T10:18:37Z</time>
      </trkpt>
      <trkpt lat="59.452560968231" lon="17.978684153022">
        <ele>32.8</ele>
        <time>2018-04-21T10:18:39Z</time>
      </trkpt>
      <trkpt lat="59.452641769747" lon="17.978662360082">
        <ele>32.4</ele>
        <time>2018-04-21T10:18:43Z</time>
      </trkpt>
      <trkpt lat="59.452813766335" lon="17.978513832814">
        <ele>33.2</ele>
        <time>2018-04-21T10:18:52Z</time>
      </trkpt>
      <trkpt lat="59.452978219213" lon="17.978292718292">
        <ele>33.4</ele>
        <time>2018-04-21T10:19:00Z</time>
      </trkpt>
      <trkpt lat="59.453004957474" lon="17.978246617842">
        <ele>33.8</ele>
        <time>2018-04-21T10:19:02Z</time>
      </trkpt>
      <trkpt lat="59.453050387372" lon="17.97813111526">
        <ele>34.8</ele>
        <time>2018-04-21T10:19:07Z</time>
      </trkpt>
      <trkpt lat="59.453049884458" lon="17.97810177861">
        <ele>35</ele>
        <time>2018-04-21T10:19:08Z</time>
      </trkpt>
      <trkpt lat="59.453068911371" lon="17.978055426703">
        <ele>35.2</ele>
        <time>2018-04-21T10:19:10Z</time>
      </trkpt>
      <trkpt lat="59.453119705685" lon="17.97794838984">
        <ele>36</ele>
        <time>2018-04-21T10:19:14Z</time>
      </trkpt>
      <trkpt lat="59.453281560174" lon="17.977785110428">
        <ele>36.6</ele>
        <time>2018-04-21T10:19:19Z</time>
      </trkpt>
      <trkpt lat="59.453434948944" lon="17.977550417228">
        <ele>36.2</ele>
        <time>2018-04-21T10:19:27Z</time>
      </trkpt>
      <trkpt lat="59.453606945532" lon="17.977422174158">
        <ele>36.6</ele>
        <time>2018-04-21T10:19:35Z</time>
      </trkpt>
      <trkpt lat="59.45379402954" lon="17.977283537532">
        <ele>35.6</ele>
        <time>2018-04-21T10:19:43Z</time>
      </trkpt>
      <trkpt lat="59.453946244844" lon="17.977197455419">
        <ele>34.8</ele>
        <time>2018-04-21T10:19:47Z</time>
      </trkpt>
      <trkpt lat="59.454006594524" lon="17.977044904839">
        <ele>33.6</ele>
        <time>2018-04-21T10:19:51Z</time>
      </trkpt>
      <trkpt lat="59.454072811534" lon="17.976930072809">
        <ele>32.6</ele>
        <time>2018-04-21T10:19:54Z</time>
      </trkpt>
      <trkpt lat="59.454102148184" lon="17.976803841395">
        <ele>31.2</ele>
        <time>2018-04-21T10:19:57Z</time>
      </trkpt>
      <trkpt lat="59.454211531979" lon="17.976515755492">
        <ele>30</ele>
        <time>2018-04-21T10:20:04Z</time>
      </trkpt>
      <trkpt lat="59.454358718143" lon="17.97624351138">
        <ele>29.2</ele>
        <time>2018-04-21T10:20:11Z</time>
      </trkpt>
      <trkpt lat="59.454407836077" lon="17.97619070541">
        <ele>29</ele>
        <time>2018-04-21T10:20:13Z</time>
      </trkpt>
      <trkpt lat="59.454509759981" lon="17.975994736588">
        <ele>28</ele>
        <time>2018-04-21T10:20:19Z</time>
      </trkpt>
      <trkpt lat="59.454609672229" lon="17.975769850211">
        <ele>26.6</ele>
        <time>2018-04-21T10:20:24Z</time>
      </trkpt>
      <trkpt lat="59.454703549509" lon="17.975567762602">
        <ele>25.6</ele>
        <time>2018-04-21T10:20:29Z</time>
      </trkpt>
      <trkpt lat="59.454757445126" lon="17.975454187857">
        <ele>24.2</ele>
        <time>2018-04-21T10:20:32Z</time>
      </trkpt>
      <trkpt lat="59.454811424562" lon="17.975352850686">
        <ele>23</ele>
        <time>2018-04-21T10:20:34Z</time>
      </trkpt>
      <trkpt lat="59.454837492271" lon="17.975264421641">
        <ele>21.8</ele>
        <time>2018-04-21T10:20:36Z</time>
      </trkpt>
      <trkpt lat="59.454870852233" lon="17.975190577102">
        <ele>20.6</ele>
        <time>2018-04-21T10:20:38Z</time>
      </trkpt>
      <trkpt lat="59.454905134204" lon="17.975093598519">
        <ele>19.4</ele>
        <time>2018-04-21T10:20:40Z</time>
      </trkpt>
      <trkpt lat="59.455014015085" lon="17.974899389896">
        <ele>18.4</ele>
        <time>2018-04-21T10:20:44Z</time>
      </trkpt>
      <trkpt lat="59.455149466589" lon="17.974634521856">
        <ele>17.8</ele>
        <time>2018-04-21T10:20:49Z</time>
      </trkpt>
      <trkpt lat="59.455225071327" lon="17.974326654669">
        <ele>17.6</ele>
        <time>2018-04-21T10:20:55Z</time>
      </trkpt>
      <trkpt lat="59.455286762111" lon="17.974025493002">
        <ele>17.6</ele>
        <time>2018-04-21T10:21:01Z</time>
      </trkpt>
      <trkpt lat="59.455353398216" lon="17.973843438134">
        <ele>17.2</ele>
        <time>2018-04-21T10:21:05Z</time>
      </trkpt>
      <trkpt lat="59.45540000158" lon="17.973488213212">
        <ele>17</ele>
        <time>2018-04-21T10:21:12Z</time>
      </trkpt>
      <trkpt lat="59.455502093122" lon="17.97317825055">
        <ele>16.8</ele>
        <time>2018-04-21T10:21:18Z</time>
      </trkpt>
      <trkpt lat="59.455543499708" lon="17.972818918497">
        <ele>17</ele>
        <time>2018-04-21T10:21:25Z</time>
      </trkpt>
      <trkpt lat="59.455538219111" lon="17.972780613214">
        <ele>17.2</ele>
        <time>2018-04-21T10:21:26Z</time>
      </trkpt>
      <trkpt lat="59.455499243276" lon="17.972389597579">
        <ele>17</ele>
        <time>2018-04-21T10:21:33Z</time>
      </trkpt>
      <trkpt lat="59.455416849199" lon="17.972007634396">
        <ele>16.6</ele>
        <time>2018-04-21T10:21:39Z</time>
      </trkpt>
      <trkpt lat="59.455360271374" lon="17.971666826342">
        <ele>17.2</ele>
        <time>2018-04-21T10:21:44Z</time>
      </trkpt>
      <trkpt lat="59.455270585044" lon="17.97135937825">
        <ele>17.8</ele>
        <time>2018-04-21T10:21:50Z</time>
      </trkpt>
      <trkpt lat="59.455315931123" lon="17.971018486377">
        <ele>17.6</ele>
        <time>2018-04-21T10:21:59Z</time>
      </trkpt>
      <trkpt lat="59.45539748701" lon="17.970620346127">
        <ele>18.4</ele>
        <time>2018-04-21T10:22:09Z</time>
      </trkpt>
      <trkpt lat="59.455418274122" lon="17.970505681735">
        <ele>19.8</ele>
        <time>2018-04-21T10:22:12Z</time>
      </trkpt>
      <trkpt lat="59.455407042376" lon="17.970436447241">
        <ele>20.4</ele>
        <time>2018-04-21T10:22:14Z</time>
      </trkpt>
      <trkpt lat="59.455418022665" lon="17.970385233832">
        <ele>21</ele>
        <time>2018-04-21T10:22:16Z</time>
      </trkpt>
      <trkpt lat="59.455406036548" lon="17.970363943806">
        <ele>21.4</ele>
        <time>2018-04-21T10:22:17Z</time>
      </trkpt>
      <trkpt lat="59.455321966091" lon="17.970302253022">
        <ele>22.2</ele>
        <time>2018-04-21T10:22:20Z</time>
      </trkpt>
      <trkpt lat="59.455294305821" lon="17.970265624119">
        <ele>23.6</ele>
        <time>2018-04-21T10:22:24Z</time>
      </trkpt>
      <trkpt lat="59.455266980827" lon="17.970259756789">
        <ele>24.4</ele>
        <time>2018-04-21T10:22:26Z</time>
      </trkpt>
      <trkpt lat="59.455253653606" lon="17.970274425114">
        <ele>24.8</ele>
        <time>2018-04-21T10:22:27Z</time>
      </trkpt>
      <trkpt lat="59.455216605608" lon="17.970257409857">
        <ele>25.8</ele>
        <time>2018-04-21T10:22:30Z</time>
      </trkpt>
      <trkpt lat="59.45519883598" lon="17.97025799659">
        <ele>25.8</ele>
        <time>2018-04-21T10:22:31Z</time>
      </trkpt>
      <trkpt lat="59.455078052801" lon="17.970280711539">
        <ele>26.6</ele>
        <time>2018-04-21T10:22:38Z</time>
      </trkpt>
      <trkpt lat="59.454694748514" lon="17.970609617295">
        <ele>27.8</ele>
        <time>2018-04-21T10:24:20Z</time>
      </trkpt>
      <trkpt lat="59.454697179265" lon="17.970607438001">
        <ele>26.4</ele>
        <time>2018-04-21T10:24:22Z</time>
      </trkpt>
      <trkpt lat="59.454676308334" lon="17.970619927032">
        <ele>27.8</ele>
        <time>2018-04-21T10:24:24Z</time>
      </trkpt>
      <trkpt lat="59.454650492082" lon="17.970627135466">
        <ele>27.2</ele>
        <time>2018-04-21T10:24:27Z</time>
      </trkpt>
      <trkpt lat="59.454638254508" lon="17.970639875954">
        <ele>28</ele>
        <time>2018-04-21T10:24:30Z</time>
      </trkpt>
      <trkpt lat="59.454594417171" lon="17.970646162379">
        <ele>28.4</ele>
        <time>2018-04-21T10:24:34Z</time>
      </trkpt>
      <trkpt lat="59.454571283127" lon="17.970638953945">
        <ele>29.2</ele>
        <time>2018-04-21T10:24:36Z</time>
      </trkpt>
      <trkpt lat="59.454543036124" lon="17.97063266752">
        <ele>29.4</ele>
        <time>2018-04-21T10:24:37Z</time>
      </trkpt>
      <trkpt lat="59.454489224326" lon="17.970620178489">
        <ele>30.4</ele>
        <time>2018-04-21T10:24:41Z</time>
      </trkpt>
      <trkpt lat="59.454458043658" lon="17.97058153793">
        <ele>31</ele>
        <time>2018-04-21T10:24:43Z</time>
      </trkpt>
      <trkpt lat="59.454412865217" lon="17.970545244303">
        <ele>31.6</ele>
        <time>2018-04-21T10:24:45Z</time>
      </trkpt>
      <trkpt lat="59.454374811391" lon="17.970530575978">
        <ele>32</ele>
        <time>2018-04-21T10:24:47Z</time>
      </trkpt>
      <trkpt lat="59.454329046217" lon="17.970468549918">
        <ele>32.6</ele>
        <time>2018-04-21T10:24:50Z</time>
      </trkpt>
      <trkpt lat="59.454269450908" lon="17.970386323479">
        <ele>34</ele>
        <time>2018-04-21T10:24:54Z</time>
      </trkpt>
      <trkpt lat="59.454266349605" lon="17.970297726796">
        <ele>35</ele>
        <time>2018-04-21T10:24:57Z</time>
      </trkpt>
      <trkpt lat="59.454256794239" lon="17.970139308886">
        <ele>36</ele>
        <time>2018-04-21T10:25:01Z</time>
      </trkpt>
      <trkpt lat="59.454230642711" lon="17.969970413601">
        <ele>37.2</ele>
        <time>2018-04-21T10:25:05Z</time>
      </trkpt>
      <trkpt lat="59.454213375997" lon="17.969837392848">
        <ele>38.6</ele>
        <time>2018-04-21T10:25:08Z</time>
      </trkpt>
      <trkpt lat="59.454183620252" lon="17.969698840041">
        <ele>39.8</ele>
        <time>2018-04-21T10:25:11Z</time>
      </trkpt>
      <trkpt lat="59.454158390733" lon="17.969629605547">
        <ele>41</ele>
        <time>2018-04-21T10:25:13Z</time>
      </trkpt>
      <trkpt lat="59.454118660527" lon="17.969515024974">
        <ele>42</ele>
        <time>2018-04-21T10:25:16Z</time>
      </trkpt>
      <trkpt lat="59.454084294737" lon="17.969452579819">
        <ele>42.4</ele>
        <time>2018-04-21T10:25:18Z</time>
      </trkpt>
      <trkpt lat="59.453910705588" lon="17.969260215214">
        <ele>42.8</ele>
        <time>2018-04-21T10:25:24Z</time>
      </trkpt>
      <trkpt lat="59.453746336529" lon="17.969118477285">
        <ele>41.4</ele>
        <time>2018-04-21T10:25:32Z</time>
      </trkpt>
      <trkpt lat="59.453718760078" lon="17.969103641322">
        <ele>41</ele>
        <time>2018-04-21T10:25:33Z</time>
      </trkpt>
      <trkpt lat="59.453611639396" lon="17.969051086809">
        <ele>39.6</ele>
        <time>2018-04-21T10:25:37Z</time>
      </trkpt>
      <trkpt lat="59.453513990261" lon="17.96893617096">
        <ele>38.4</ele>
        <time>2018-04-21T10:25:41Z</time>
      </trkpt>
      <trkpt lat="59.453431680003" lon="17.968860566222">
        <ele>37</ele>
        <time>2018-04-21T10:25:44Z</time>
      </trkpt>
      <trkpt lat="59.453386753019" lon="17.968852268141">
        <ele>35.8</ele>
        <time>2018-04-21T10:25:46Z</time>
      </trkpt>
      <trkpt lat="59.453365127717" lon="17.968840952576">
        <ele>34.2</ele>
        <time>2018-04-21T10:25:48Z</time>
      </trkpt>
      <trkpt lat="59.453333276497" lon="17.968825362242">
        <ele>33.2</ele>
        <time>2018-04-21T10:25:51Z</time>
      </trkpt>
      <trkpt lat="59.453309052806" lon="17.968814465772">
        <ele>32.8</ele>
        <time>2018-04-21T10:25:52Z</time>
      </trkpt>
      <trkpt lat="59.453266556573" lon="17.96880960427">
        <ele>32</ele>
        <time>2018-04-21T10:25:54Z</time>
      </trkpt>
      <trkpt lat="59.453191203292" lon="17.96878781133">
        <ele>31</ele>
        <time>2018-04-21T10:25:58Z</time>
      </trkpt>
      <trkpt lat="59.453176451148" lon="17.968794181574">
        <ele>30.4</ele>
        <time>2018-04-21T10:26:01Z</time>
      </trkpt>
      <trkpt lat="59.453143426462" lon="17.968825613699">
        <ele>29.8</ele>
        <time>2018-04-21T10:26:04Z</time>
      </trkpt>
      <trkpt lat="59.453119202771" lon="17.968818572903">
        <ele>28.8</ele>
        <time>2018-04-21T10:26:07Z</time>
      </trkpt>
      <trkpt lat="59.453106210826" lon="17.968840701119">
        <ele>28.6</ele>
        <time>2018-04-21T10:26:08Z</time>
      </trkpt>
      <trkpt lat="59.452884761028" lon="17.968978751012">
        <ele>28</ele>
        <time>2018-04-21T10:26:12Z</time>
      </trkpt>
      <trkpt lat="59.452674794433" lon="17.969067347695">
        <ele>27.2</ele>
        <time>2018-04-21T10:26:15Z</time>
      </trkpt>
      <trkpt lat="59.452508916632" lon="17.96917002597">
        <ele>26</ele>
        <time>2018-04-21T10:26:19Z</time>
      </trkpt>
      <trkpt lat="59.452310014145" lon="17.969310590433">
        <ele>25.2</ele>
        <time>2018-04-21T10:26:23Z</time>
      </trkpt>
      <trkpt lat="59.45226684736" lon="17.969326180767">
        <ele>25.2</ele>
        <time>2018-04-21T10:26:25Z</time>
      </trkpt>
      <trkpt lat="59.452245305877" lon="17.969335317038">
        <ele>24.8</ele>
        <time>2018-04-21T10:26:26Z</time>
      </trkpt>
      <trkpt lat="59.452224183489" lon="17.969334059753">
        <ele>24.6</ele>
        <time>2018-04-21T10:26:27Z</time>
      </trkpt>
      <trkpt lat="59.452132904598" lon="17.969351829381">
        <ele>24</ele>
        <time>2018-04-21T10:26:29Z</time>
      </trkpt>
      <trkpt lat="59.452101891568" lon="17.969358870177">
        <ele>23.8</ele>
        <time>2018-04-21T10:26:30Z</time>
      </trkpt>
      <trkpt lat="59.45209669479" lon="17.969381082212">
        <ele>23.6</ele>
        <time>2018-04-21T10:26:32Z</time>
      </trkpt>
      <trkpt lat="59.451891924973" lon="17.969403629523">
        <ele>23.2</ele>
        <time>2018-04-21T10:26:37Z</time>
      </trkpt>
      <trkpt lat="59.451853871147" lon="17.969410418862">
        <ele>23.4</ele>
        <time>2018-04-21T10:26:38Z</time>
      </trkpt>
      <trkpt lat="59.451721018032" lon="17.969403797161">
        <ele>23.6</ele>
        <time>2018-04-21T10:26:42Z</time>
      </trkpt>
      <trkpt lat="59.451420610736" lon="17.969400947315">
        <ele>23.4</ele>
        <time>2018-04-21T10:26:47Z</time>
      </trkpt>
    </trkseg>
  </trk>
</gpx>